createdAt,value
2019-03-13T00:01:14.903Z,3
2019-03-13T00:06:37.626Z,3.4
2019-03-13T00:12:00.334Z,3.8
2019-03-13T00:17:23.009Z,3.7
2019-03-13T00:22:46.430Z,4.1
2019-03-13T00:28:09.154Z,4.3
2019-03-13T00:33:31.933Z,4.8
2019-03-13T00:38:54.650Z,5.3
2019-03-13T00:44:17.443Z,5.1
2019-03-13T00:49:40.524Z,5.2
2019-03-13T00:55:03.177Z,5.2
2019-03-13T01:00:25.929Z,5.2
2019-03-13T01:05:48.772Z,4.6
2019-03-13T01:11:11.491Z,4.6
2019-03-13T01:16:34.233Z,4.3
2019-03-13T01:21:57.208Z,4.7
2019-03-13T01:27:19.846Z,4.7
2019-03-13T01:32:42.524Z,5.3
2019-03-13T01:38:05.233Z,5.4
2019-03-13T01:43:27.838Z,5.3
2019-03-13T01:48:50.676Z,5.4
2019-03-13T01:54:14.613Z,5.2
2019-03-13T01:59:37.964Z,6
2019-03-13T02:05:00.816Z,5.5
2019-03-13T02:10:27.761Z,6
2019-03-13T02:15:50.461Z,6.1
2019-03-13T02:21:14.109Z,6.6
2019-03-13T02:26:37.509Z,6.3
2019-03-13T02:32:00.314Z,6.8
2019-03-13T02:37:22.965Z,6.9
2019-03-13T02:42:46.226Z,6.9
2019-03-13T02:48:09.838Z,7.4
2019-03-13T02:53:32.590Z,8
2019-03-13T02:58:55.300Z,7.6
2019-03-13T03:04:18.080Z,7.6
2019-03-13T03:09:40.727Z,7.2
2019-03-13T03:15:05.799Z,6.7
2019-03-13T03:20:28.474Z,6.5
2019-03-13T03:25:51.125Z,6.2
2019-03-13T03:31:13.752Z,5.6
2019-03-13T03:36:37.024Z,5.2
2019-03-13T03:42:00.044Z,4.9
2019-03-13T03:47:22.868Z,4.3
2019-03-13T03:52:45.569Z,4.3
2019-03-13T03:58:08.238Z,4.3
2019-03-13T04:03:30.972Z,3.6
2019-03-13T04:08:53.875Z,3.8
2019-03-13T04:14:16.554Z,3.5
2019-03-13T04:19:39.201Z,3.4
2019-03-13T04:25:02.003Z,3.6
2019-03-13T04:30:24.596Z,3.4
2019-03-13T04:35:47.241Z,3.4
2019-03-13T04:41:10.001Z,2.9
2019-03-13T04:46:32.925Z,2.7
2019-03-13T04:51:55.537Z,3.3
2019-03-13T04:57:18.145Z,2.4
2019-03-13T05:02:40.887Z,2.6
2019-03-13T05:08:03.720Z,2.9
2019-03-13T05:13:26.505Z,2.2
2019-03-13T05:18:49.139Z,3.1
2019-03-13T05:24:11.786Z,2.8
2019-03-13T05:29:34.452Z,3
2019-03-13T05:34:57.120Z,3
2019-03-13T05:40:19.868Z,2.9
2019-03-13T05:45:42.459Z,2.8
2019-03-13T05:51:05.256Z,2.6
2019-03-13T05:56:27.935Z,2.6
2019-03-13T06:01:50.716Z,2.5
2019-03-13T06:07:13.528Z,2.9
2019-03-13T06:12:36.244Z,2.8
2019-03-13T06:17:59.071Z,2.8
2019-03-13T06:23:21.796Z,3.1
2019-03-13T06:28:47.895Z,2.6
2019-03-13T06:34:11.561Z,2.8
2019-03-13T06:39:34.308Z,2.9
2019-03-13T06:44:59.088Z,3.2
2019-03-13T06:50:21.729Z,3.6
2019-03-13T06:55:44.482Z,2.6
2019-03-13T07:01:07.120Z,3.1
2019-03-13T07:06:29.716Z,2.9
2019-03-13T07:11:52.455Z,2.7
2019-03-13T07:17:15.090Z,3
2019-03-13T07:22:37.790Z,2.8
2019-03-13T07:28:03.214Z,2.9
2019-03-13T07:33:26.060Z,2.9
2019-03-13T07:38:48.622Z,3
2019-03-13T07:44:11.993Z,2.9
2019-03-13T07:49:34.881Z,3.8
2019-03-13T07:54:57.613Z,3.2
2019-03-13T08:00:23.149Z,3
2019-03-13T08:05:45.900Z,3.4
2019-03-13T08:11:08.734Z,3.4
2019-03-13T08:16:32.375Z,3.1
2019-03-13T08:21:55.201Z,3
2019-03-13T08:27:17.920Z,3.4
2019-03-13T08:32:41.652Z,3
2019-03-13T08:38:04.398Z,3.6
2019-03-13T08:43:27.083Z,3.4
2019-03-13T08:48:49.691Z,3.6
2019-03-13T08:54:12.297Z,2.8
2019-03-13T08:59:34.990Z,3.2
2019-03-13T09:04:57.799Z,2.5
2019-03-13T09:10:22.552Z,3.2
2019-03-13T09:15:44.659Z,2.8
2019-03-13T09:21:08.329Z,2.8
2019-03-13T09:26:31.326Z,3.1
2019-03-13T09:31:54.009Z,2.9
2019-03-13T09:37:16.623Z,2.7
2019-03-13T09:42:39.935Z,2.9
2019-03-13T09:48:02.617Z,3
2019-03-13T09:53:25.325Z,3
2019-03-13T09:58:48.999Z,2.6
2019-03-13T10:04:11.891Z,2.4
2019-03-13T10:09:34.507Z,2.2
2019-03-13T10:14:57.223Z,3
2019-03-13T10:20:19.874Z,3.1
2019-03-13T10:25:42.634Z,2.6
2019-03-13T10:31:05.762Z,2.8
2019-03-13T10:36:40.040Z,2.5
2019-03-13T10:42:02.420Z,2.1
2019-03-13T10:47:25.238Z,2.2
2019-03-13T10:52:48.919Z,2.6
2019-03-13T10:58:11.698Z,2.5
2019-03-13T11:03:36.557Z,2.9
2019-03-13T11:09:00.059Z,3
2019-03-13T11:14:22.847Z,2.7
2019-03-13T11:19:45.535Z,2.5
2019-03-13T11:25:08.439Z,2.8
2019-03-13T11:30:32.055Z,2.8
2019-03-13T11:35:54.776Z,2.2
2019-03-13T11:41:17.484Z,2.7
2019-03-13T11:46:40.262Z,3.2
2019-03-13T11:52:03.686Z,3
2019-03-13T11:57:26.978Z,2.9
2019-03-13T12:02:49.685Z,3.4
2019-03-13T12:08:13.519Z,3.8
2019-03-13T12:13:36.857Z,3.3
2019-03-13T12:18:59.720Z,3.6
2019-03-13T12:24:24.327Z,3.7
2019-03-13T12:29:46.965Z,4
2019-03-13T12:35:09.746Z,3.4
2019-03-13T12:40:32.493Z,3.4
2019-03-13T12:45:55.306Z,2.6
2019-03-13T12:51:17.973Z,2.8
2019-03-13T12:56:41.655Z,2.7
2019-03-13T13:02:04.530Z,3.1
2019-03-13T13:07:27.275Z,2.5
2019-03-13T13:12:50.136Z,3
2019-03-13T13:18:12.845Z,2.8
2019-03-13T13:23:35.459Z,2.5
2019-03-13T13:28:58.113Z,2.5
2019-03-13T13:34:20.995Z,2.6
2019-03-13T13:39:44.481Z,2.5
2019-03-13T13:45:17.666Z,2.2
2019-03-13T13:51:14.969Z,2
2019-03-13T13:56:47.270Z,2.2
2019-03-13T14:02:21.246Z,1.9
2019-03-13T14:07:54.459Z,1.9
2019-03-13T14:13:28.569Z,1.9
2019-03-13T14:19:03.353Z,1.7
2019-03-13T14:24:37.905Z,2.1
2019-03-13T14:30:11.180Z,2
2019-03-13T14:35:46.254Z,2.1
2019-03-13T14:41:36.168Z,2.2
2019-03-13T14:47:10.676Z,2.3
2019-03-13T14:52:43.825Z,2.3
2019-03-13T14:58:15.936Z,2
2019-03-13T15:03:51.653Z,2.5
2019-03-13T15:09:24.365Z,2.9
2019-03-13T15:14:57.929Z,2.6
2019-03-13T15:20:30.063Z,2.4
2019-03-13T15:26:04.143Z,2.5
2019-03-13T15:31:37.460Z,2.6
2019-03-13T15:37:12.721Z,2.7
2019-03-13T15:42:46.593Z,2.7
2019-03-13T15:48:10.423Z,2.7
2019-03-13T15:53:33.267Z,2.6
2019-03-13T15:59:06.596Z,2.5
2019-03-13T16:04:40.276Z,2.7
2019-03-13T16:10:12.501Z,2.6
2019-03-13T16:15:46.059Z,2.9
2019-03-13T16:21:07.655Z,2.9
2019-03-13T16:26:30.311Z,2.5
2019-03-13T16:31:53.091Z,2
2019-03-13T16:37:15.950Z,2.6
2019-03-13T16:42:38.614Z,2.4
2019-03-13T16:48:01.516Z,2.6
2019-03-13T16:53:24.202Z,2.7
2019-03-13T16:58:47.980Z,2.7
2019-03-13T17:04:11.728Z,2.5
2019-03-13T17:09:34.674Z,2.3
2019-03-13T17:14:57.430Z,2.9
2019-03-13T17:20:20.150Z,2.7
2019-03-13T17:25:43.481Z,2.4
2019-03-13T17:31:06.151Z,2.8
2019-03-13T17:36:29.366Z,2.3
2019-03-13T17:41:52.229Z,2.9
2019-03-13T17:47:14.963Z,2.6
2019-03-13T17:52:37.805Z,2.9
2019-03-13T17:58:00.750Z,2.9
2019-03-13T18:03:23.535Z,2.6
2019-03-13T18:08:46.304Z,2.7
2019-03-13T18:14:09.311Z,2.4
2019-03-13T18:19:40.594Z,2.3
2019-03-13T18:25:03.345Z,2.5
2019-03-13T18:30:36.562Z,2.5
2019-03-13T18:36:00.013Z,2
2019-03-13T18:41:23.917Z,2.4
2019-03-13T18:46:46.641Z,2.6
2019-03-13T18:52:09.799Z,2.3
2019-03-13T18:57:43.683Z,2.4
2019-03-13T19:03:06.596Z,2.5
2019-03-13T19:08:29.597Z,2.6
2019-03-13T19:14:04.711Z,2.9
2019-03-13T19:19:27.839Z,2.5
2019-03-13T19:24:51.863Z,2.7
2019-03-13T19:30:15.372Z,2.3
2019-03-13T19:35:48.545Z,2.8
2019-03-13T19:41:12.144Z,3.1
2019-03-13T19:46:35.153Z,2.7
2019-03-13T19:51:58.947Z,3.3
2019-03-13T19:57:23.437Z,3.1
2019-03-13T20:02:59.303Z,2.4
2019-03-13T20:08:14.178Z,3.9
2019-03-13T20:13:37.277Z,3.2
2019-03-13T20:19:00.013Z,3.6
2019-03-13T20:24:23.719Z,3.4
2019-03-13T20:29:46.841Z,3
2019-03-13T20:35:11.274Z,3.6
2019-03-13T20:40:35.124Z,3.2
2019-03-13T20:45:59.154Z,3.4
2019-03-13T20:51:23.127Z,3.2
2019-03-13T20:56:47.065Z,3.5
2019-03-13T21:02:09.965Z,3.1
2019-03-13T21:07:33.914Z,3.9
2019-03-13T21:12:57.293Z,3.9
2019-03-13T21:18:20.621Z,3.9
2019-03-13T21:23:44.660Z,3.8
2019-03-13T21:29:07.658Z,4.3
2019-03-13T21:34:30.538Z,4.2
2019-03-13T21:39:54.172Z,3.4
2019-03-13T21:45:22.622Z,3.4
2019-03-13T21:50:42.163Z,3.2
2019-03-13T21:56:05.334Z,3.4
2019-03-13T22:01:28.546Z,3.2
2019-03-13T22:06:51.588Z,3.3
2019-03-13T22:12:14.965Z,4.3
2019-03-13T22:17:37.881Z,4.5
2019-03-13T22:23:00.771Z,3.7
2019-03-13T22:28:23.509Z,3.7
2019-03-13T22:33:46.375Z,3.7
2019-03-13T22:39:09.132Z,4.6
2019-03-13T22:44:32.628Z,4.1
2019-03-13T22:49:55.423Z,4.4
2019-03-13T22:55:18.066Z,3.5
2019-03-13T23:00:40.767Z,3.1
2019-03-13T23:06:03.996Z,4
2019-03-13T23:11:26.714Z,3.5
2019-03-13T23:16:50.231Z,3.7
2019-03-13T23:22:14.618Z,3.6
2019-03-13T23:27:37.467Z,4
2019-03-13T23:33:00.911Z,3.3
2019-03-13T23:38:23.524Z,3.5
2019-03-13T23:43:46.252Z,3.4
2019-03-13T23:49:09.505Z,3.1
2019-03-13T23:54:32.239Z,3.5
2019-03-13T23:59:54.836Z,3.6
